GBYD/BJL METAR and TAF weather

Enter ICAO airport designator
Station Type Date Time Source
GBYD METAR 2020/07/09 07:00 UTC NOAA

GBYD 090700Z VRB03KT 9999 BKN010 27/25 Q1009


Station Type Date Time Source
GBYD Decoded METAR 2020/07/09 07:00 UTC NOAA

Banjul / Yundum, Gambia, The (GBYD) 13-21N 016-48W 36M
Jul 09, 2020 - 03:00 AM EDT / 2020.07.09 0700 UTC
Wind: Variable at 3 MPH (3 KT):0
Visibility: greater than 7 mile(s):0
Sky conditions: mostly cloudy
Temperature: 80 F (27 C)
Dew Point: 77 F (25 C)
Relative Humidity: 88%
Pressure (altimeter): 29.80 in. Hg (1009 hPa)
ob: GBYD 090700Z VRB03KT 9999 BKN010 27/25 Q1009
cycle: 7

Station Type Date Time Source
GBYD TAF 2020/07/09 06:51 UTC NOAA

TAF TAF GBYD 090530Z 0906/1012 30010KT 9999 SCT012

Example: see airport list